LIMLLIRS

Guest
Details From LIML - Milano Linate
To LIRS - GROSSETO
Flight Number -
Tags generated
Created
Modified
Stats Distance 180 nm / 334 km
Max Altitude 17,800 ft / 5,425 m
Waypoints 3
Social Downloads 0
Likes 0
Share VATSIM

Download

Looking for another format? Having issues loading an existing format? Contact us
Advertisement - Login to hide

Notes

Basic altitude profile: - Ascent Rate: 1000ft/min - Ascent Speed: 170kts - Cruise Altitude: 2500ft - Cruise Speed: 2180kts - Descent Rate: 1000ft/min - Descent Speed: 150kts Options: - Use NATs: no - Use PACOTS: no - Use low airways: no - Use high airways: no

Route

LIML 4400N01000E LIRS

ID Type Via Altitude Latitude Longitude Leg Dist Tot Dist Heading (true) Name
O LIML APT - 0 ft / 0 m 45.45030˚ 9.27280˚ - 0 nm - Milano Linate
4400N01000E LATLON - 17,800 ft / 5,425 m 44.00000˚ 10.00000˚ 92 nm 92 nm 160° / 161° -
O LIRS APT - 0 ft / 0 m 42.76028˚ 11.07198˚ 87 nm 180 nm 147° / 148° GROSSETO

Altitude Profile

Advertisement - Login to hide

Weather


0- 5 10 15 20 25 30 35+ Temperature / ° C

Clouds and Precipitation
Forecast for 2017-12-14 06:00 UTC. Updated an hour ago

Ground ~20,000 ft ~40,000 ft Winds

LIML

Details ICAO LIML (LIN)
Name Milano Linate
Region Italy
Timezone Europe/Rome (UTC+1.0)
Stats Elevation 353 ft / 108 m (AMSL)
Location 45.450302° 9.272801°
Runways 2
Magnetic Variation 2.500° E

METAR

LIML 140220Z VRB02KT 6000 SCT050 03/03 Q1011 NOSIG

Decode

TAF

TAF LIML 132300Z 1400/1424 VRB05KT 3500 BR SCT035 TEMPO 1400/1408 0800 BCFG BKN012 BECMG 1409/1412 6000

Decode

Departure Runways

ID Width Length Bearing (true) Bearing (mag) Surface Threshold Offset Overrun Length
17 72 ft / 22 m 1,975 ft / 602 m 175.64° 173.14° Asphalt 200 ft / 61 m 0 ft / 0 m
18 197 ft / 60 m 8,017 ft / 2,443 m 175.67° 173.17° Asphalt 0 ft / 0 m 190 ft / 58 m
35 72 ft / 22 m 1,975 ft / 602 m 355.64° 353.14° Asphalt 200 ft / 61 m 0 ft / 0 m
36 197 ft / 60 m 8,017 ft / 2,443 m 355.68° 353.18° Asphalt 0 ft / 0 m 980 ft / 299 m

LIRS

Details ICAO LIRS (GRS)
Name GROSSETO
Region Italy
Timezone Europe/Rome (UTC+1.0)
Stats Elevation 15 ft / 5 m (AMSL)
Location 42.760275° 11.071980°
Runways 2
Magnetic Variation 2.810° E

METAR

LIRS 140155Z 12007KT CAVOK 07/04 Q1015 RMK BKN BKN130 VIS MIN 9999 WIND THR03 13009KT WIND THR21 13006KT BLU

Decode

TAF

Not found

Destination Runways

ID Width Length Bearing (true) Bearing (mag) Surface Threshold Offset Overrun Length
03 148 ft / 45 m 9,826 ft / 2,995 m 30.87° 28.06° Asphalt 317 ft / 97 m 0 ft / 0 m
03R 80 ft / 24 m 7,731 ft / 2,356 m 30.70° 27.89° Asphalt 0 ft / 0 m 1,091 ft / 333 m
21 148 ft / 45 m 9,826 ft / 2,995 m 210.88° 208.07° Asphalt 0 ft / 0 m 0 ft / 0 m
21L 80 ft / 24 m 7,731 ft / 2,356 m 210.71° 207.90° Asphalt 0 ft / 0 m 875 ft / 267 m

Popular Alternatives